»·PEaware :: N123SX KONT-L70

N123SX :: KONT-L70

FLIGHT INFORMATION

Flight Status: Arrived
Operator: Privately registered:
United States
More flights under this callsign
Pilot: Shawn G. (7208)
Aircraft: Unknown
(PIPA)
More flights by this aircraft type
Origin: KONT Ontario Intl
United States
Destination: L70 Agua Dulce
United States
More flights between these airports :: More routes between these airports
Route: +
File this flight plan on PilotEdge
Remarks:
Altitude:
(Current/Filed)
6,500ft
Speed:
(Current/Filed)
0kts
Departed: 25-May-18 04:55 PM
Arrived: 25-May-18 05:16 PM
Distance/Time
Traveled:
44nm/0:21
Distance/Time
To Go:
Arrived

Flight Plot

Page will automatically refresh every two minutes.


Map Options




Map Legend


Flown Route
Filed Route
Departure Airport
Arrival Airport
Navaid (VOR, NDB)
Fix

Horizontal Profiles

Position Reports

Time Latitude Longitude Heading Altitude Ground
Speed
25-May-18 16:25 34.052474 -117.613405 97 945ft 0kts
25-May-18 16:26 34.052474 -117.613405 97 945ft 0kts
25-May-18 16:27 34.052474 -117.613405 97 945ft 0kts
25-May-18 16:28 34.052474 -117.613405 97 945ft 0kts
25-May-18 16:29 34.052474 -117.613405 97 945ft 0kts
25-May-18 16:30 34.052494 -117.612615 80 945ft 6kts
25-May-18 16:31 34.053067 -117.609339 88 945ft 12kts
25-May-18 16:32 34.052998 -117.604964 87 945ft 12kts
25-May-18 16:33 34.051968 -117.602955 196 945ft 3kts
25-May-18 16:34 34.051935 -117.602992 264 945ft 0kts
25-May-18 16:35 34.051935 -117.602992 264 945ft 0kts
25-May-18 16:36 34.051935 -117.602992 264 945ft 0kts
25-May-18 16:37 34.051935 -117.602992 264 945ft 0kts
25-May-18 16:38 34.051935 -117.602992 264 945ft 0kts
25-May-18 16:39 34.051935 -117.602992 264 945ft 0kts
25-May-18 16:40 34.051935 -117.602992 264 945ft 0kts
25-May-18 16:41 34.051935 -117.602992 264 945ft 0kts
25-May-18 16:42 34.051935 -117.602992 264 945ft 0kts
25-May-18 16:43 34.051935 -117.602992 264 945ft 0kts
25-May-18 16:44 34.051935 -117.602997 263 945ft 0kts
25-May-18 16:45 34.052718 -117.603593 341 945ft 4kts
25-May-18 16:46 34.052944 -117.603684 345 945ft 0kts
25-May-18 16:47 34.053236 -117.603739 1 945ft 0kts
25-May-18 16:48 34.053869 -117.601981 89 945ft 13kts
25-May-18 16:49 34.053843 -117.597994 87 945ft 11kts
25-May-18 16:50 34.053852 -117.593348 89 945ft 16kts
25-May-18 16:51 34.053844 -117.587530 88 945ft 18kts
25-May-18 16:52 34.053836 -117.582895 91 945ft 3kts
25-May-18 16:53 34.054057 -117.582658 353 945ft 0kts
25-May-18 16:54 34.054972 -117.583063 267 945ft 0kts
25-May-18 16:55 34.055009 -117.586719 266 953ft 73kts
25-May-18 16:56 34.063553 -117.617202 297 2523ft 98kts
25-May-18 16:57 34.078094 -117.654758 280 3801ft 123kts
25-May-18 16:58 34.084742 -117.687700 280 5653ft 101kts
25-May-18 16:59 34.092264 -117.724691 282 6538ft 148kts
25-May-18 17:00 34.103335 -117.777977 282 6531ft 173kts
25-May-18 17:01 34.115301 -117.834820 281 6532ft 177kts
25-May-18 17:02 34.127394 -117.892404 281 6523ft 181kts
25-May-18 17:03 34.139788 -117.951388 281 6523ft 182kts
25-May-18 17:04 34.156416 -118.011577 299 5821ft 196kts
25-May-18 17:05 34.185681 -118.067075 300 5119ft 197kts
25-May-18 17:06 34.214923 -118.121939 300 4565ft 192kts
25-May-18 17:07 34.242533 -118.173476 300 4528ft 178kts
25-May-18 17:08 34.275163 -118.217784 308 4502ft 178kts
25-May-18 17:09 34.301247 -118.267021 290 4501ft 174kts
25-May-18 17:10 34.329372 -118.309670 356 4501ft 179kts
25-May-18 17:11 34.378199 -118.310974 0 4630ft 176kts
25-May-18 17:12 34.428968 -118.311282 3 3757ft 196kts
25-May-18 17:13 34.477124 -118.312697 350 3199ft 149kts
25-May-18 17:14 34.509798 -118.312781 46 2925ft 113kts
25-May-18 17:15 34.505924 -118.309285 229 2668ft 44kts
25-May-18 17:16 34.505319 -118.311123 56 2663ft 8kts
25-May-18 17:17 34.506841 -118.308657 55 2663ft 9kts
25-May-18 17:18 34.507769 -118.307118 106 2663ft 0kts
25-May-18 17:19 34.507769 -118.307118 106 2663ft 0kts
25-May-18 17:20 34.507769 -118.307118 106 2663ft 0kts
25-May-18 17:21 34.507769 -118.307117 106 2663ft 0kts

Navigation Log

Ident Type
Flight plan parsing failed, navigation log unavailable